sensor_id;sensor_type;location;lat;lon;timestamp;pressure;altitude;pressure_sealevel;temperature;humidity
54562;BME280;69047;53.358;-1.486;2023-08-24T00:01:03;100520.19;;;19.21;66.12
54562;BME280;69047;53.358;-1.486;2023-08-24T00:03:28;100521.00;;;19.22;66.25
54562;BME280;69047;53.358;-1.486;2023-08-24T00:05:54;100528.38;;;19.13;66.70
54562;BME280;69047;53.358;-1.486;2023-08-24T00:08:19;100527.19;;;19.05;66.71
54562;BME280;69047;53.358;-1.486;2023-08-24T00:10:45;100536.81;;;19.03;66.53
54562;BME280;69047;53.358;-1.486;2023-08-24T00:13:14;100544.66;;;18.60;68.02
54562;BME280;69047;53.358;-1.486;2023-08-24T00:15:39;100551.66;;;18.66;67.92
54562;BME280;69047;53.358;-1.486;2023-08-24T00:18:05;100540.63;;;18.93;67.07
54562;BME280;69047;53.358;-1.486;2023-08-24T00:20:31;100533.59;;;19.01;67.07
54562;BME280;69047;53.358;-1.486;2023-08-24T00:23:00;100532.34;;;18.71;67.99
54562;BME280;69047;53.358;-1.486;2023-08-24T00:25:25;100538.31;;;18.87;67.74
54562;BME280;69047;53.358;-1.486;2023-08-24T00:27:54;100529.53;;;18.98;67.39
54562;BME280;69047;53.358;-1.486;2023-08-24T00:30:20;100513.69;;;18.95;66.97
54562;BME280;69047;53.358;-1.486;2023-08-24T00:32:45;100526.31;;;18.96;67.49
54562;BME280;69047;53.358;-1.486;2023-08-24T00:35:11;100508.94;;;19.09;66.64
54562;BME280;69047;53.358;-1.486;2023-08-24T00:37:37;100507.78;;;19.02;66.91
54562;BME280;69047;53.358;-1.486;2023-08-24T00:40:04;100514.59;;;18.91;67.46
54562;BME280;69047;53.358;-1.486;2023-08-24T00:42:37;100508.53;;;19.16;66.63
54562;BME280;69047;53.358;-1.486;2023-08-24T00:45:03;100509.72;;;19.01;67.16
54562;BME280;69047;53.358;-1.486;2023-08-24T00:47:28;100502.22;;;19.15;66.56
54562;BME280;69047;53.358;-1.486;2023-08-24T00:49:54;100504.00;;;19.11;66.71
54562;BME280;69047;53.358;-1.486;2023-08-24T00:52:20;100506.66;;;19.25;66.33
54562;BME280;69047;53.358;-1.486;2023-08-24T00:54:46;100500.34;;;19.24;66.69
54562;BME280;69047;53.358;-1.486;2023-08-24T00:57:12;100499.09;;;19.30;66.37
54562;BME280;69047;53.358;-1.486;2023-08-24T00:59:38;100495.88;;;19.28;66.69
54562;BME280;69047;53.358;-1.486;2023-08-24T01:02:04;100492.84;;;18.94;68.01
54562;BME280;69047;53.358;-1.486;2023-08-24T01:04:29;100492.94;;;18.67;68.63
54562;BME280;69047;53.358;-1.486;2023-08-24T01:06:55;100493.09;;;18.84;68.09
54562;BME280;69047;53.358;-1.486;2023-08-24T01:09:21;100489.47;;;18.61;68.77
54562;BME280;69047;53.358;-1.486;2023-08-24T01:12:00;100480.34;;;19.02;67.38
54562;BME280;69047;53.358;-1.486;2023-08-24T01:14:44;100476.53;;;19.11;67.11
54562;BME280;69047;53.358;-1.486;2023-08-24T01:17:14;100483.13;;;19.32;66.60
54562;BME280;69047;53.358;-1.486;2023-08-24T01:19:43;100486.00;;;19.27;66.90
54562;BME280;69047;53.358;-1.486;2023-08-24T01:25:17;100493.94;;;19.07;67.47
54562;BME280;69047;53.358;-1.486;2023-08-24T01:27:48;100482.94;;;19.07;67.43
54562;BME280;69047;53.358;-1.486;2023-08-24T01:30:14;100487.56;;;19.20;67.32
54562;BME280;69047;53.358;-1.486;2023-08-24T01:32:41;100482.94;;;19.07;67.46
54562;BME280;69047;53.358;-1.486;2023-08-24T01:35:08;100490.06;;;19.08;67.78
54562;BME280;69047;53.358;-1.486;2023-08-24T01:37:35;100486.94;;;19.23;67.16
54562;BME280;69047;53.358;-1.486;2023-08-24T01:42:48;100474.28;;;19.13;67.63
54562;BME280;69047;53.358;-1.486;2023-08-24T01:45:17;100476.56;;;18.98;68.36
54562;BME280;69047;53.358;-1.486;2023-08-24T01:47:45;100470.78;;;18.99;68.21
54562;BME280;69047;53.358;-1.486;2023-08-24T01:50:11;100463.72;;;18.49;70.03
54562;BME280;69047;53.358;-1.486;2023-08-24T01:52:37;100465.81;;;18.65;69.64
54562;BME280;69047;53.358;-1.486;2023-08-24T01:55:02;100463.75;;;18.71;69.07
54562;BME280;69047;53.358;-1.486;2023-08-24T01:57:28;100459.38;;;18.84;69.30
54562;BME280;69047;53.358;-1.486;2023-08-24T01:59:53;100459.63;;;18.60;70.09
54562;BME280;69047;53.358;-1.486;2023-08-24T02:02:20;100461.78;;;18.49;70.30
54562;BME280;69047;53.358;-1.486;2023-08-24T02:04:46;100455.56;;;18.44;70.65
54562;BME280;69047;53.358;-1.486;2023-08-24T02:07:11;100457.53;;;18.30;71.31
54562;BME280;69047;53.358;-1.486;2023-08-24T02:09:37;100462.28;;;18.38;71.03
54562;BME280;69047;53.358;-1.486;2023-08-24T02:12:02;100457.13;;;18.22;71.30
54562;BME280;69047;53.358;-1.486;2023-08-24T02:14:27;100461.16;;;18.52;70.51
54562;BME280;69047;53.358;-1.486;2023-08-24T02:16:53;100452.03;;;18.57;69.86
54562;BME280;69047;53.358;-1.486;2023-08-24T02:19:19;100448.25;;;18.66;70.12
54562;BME280;69047;53.358;-1.486;2023-08-24T02:21:44;100452.84;;;18.57;70.20
54562;BME280;69047;53.358;-1.486;2023-08-24T02:24:09;100441.44;;;18.64;69.86
54562;BME280;69047;53.358;-1.486;2023-08-24T02:26:35;100434.78;;;18.78;68.96
54562;BME280;69047;53.358;-1.486;2023-08-24T02:29:00;100433.59;;;18.71;69.32
54562;BME280;69047;53.358;-1.486;2023-08-24T02:31:26;100430.47;;;18.86;68.72
54562;BME280;69047;53.358;-1.486;2023-08-24T02:33:51;100416.84;;;18.72;69.17
54562;BME280;69047;53.358;-1.486;2023-08-24T02:36:17;100413.44;;;18.53;70.09
54562;BME280;69047;53.358;-1.486;2023-08-24T02:38:42;100413.22;;;18.63;69.72
54562;BME280;69047;53.358;-1.486;2023-08-24T02:41:08;100412.66;;;18.75;69.16
54562;BME280;69047;53.358;-1.486;2023-08-24T02:43:34;100417.53;;;18.78;69.01
54562;BME280;69047;53.358;-1.486;2023-08-24T02:46:04;100424.31;;;18.81;69.11
54562;BME280;69047;53.358;-1.486;2023-08-24T02:48:30;100415.19;;;18.71;69.19
54562;BME280;69047;53.358;-1.486;2023-08-24T02:50:59;100413.81;;;18.60;69.75
54562;BME280;69047;53.358;-1.486;2023-08-24T02:53:25;100402.72;;;18.65;69.37
54562;BME280;69047;53.358;-1.486;2023-08-24T02:55:51;100410.16;;;18.65;69.40
54562;BME280;69047;53.358;-1.486;2023-08-24T02:58:16;100414.44;;;18.57;69.84
54562;BME280;69047;53.358;-1.486;2023-08-24T03:00:42;100410.72;;;18.26;71.18
54562;BME280;69047;53.358;-1.486;2023-08-24T03:03:07;100415.22;;;18.08;71.61
54562;BME280;69047;53.358;-1.486;2023-08-24T03:05:32;100413.59;;;18.07;71.93
54562;BME280;69047;53.358;-1.486;2023-08-24T03:07:59;100416.75;;;18.14;72.09
54562;BME280;69047;53.358;-1.486;2023-08-24T03:10:25;100407.69;;;18.28;71.77
54562;BME280;69047;53.358;-1.486;2023-08-24T03:12:50;100401.81;;;18.20;71.59
54562;BME280;69047;53.358;-1.486;2023-08-24T03:15:16;100405.91;;;18.45;71.28
54562;BME280;69047;53.358;-1.486;2023-08-24T03:17:41;100414.59;;;18.74;70.29
54562;BME280;69047;53.358;-1.486;2023-08-24T03:20:07;100430.63;;;18.81;69.78
54562;BME280;69047;53.358;-1.486;2023-08-24T03:22:34;100428.50;;;18.78;69.96
54562;BME280;69047;53.358;-1.486;2023-08-24T03:24:59;100417.47;;;18.69;69.82
54562;BME280;69047;53.358;-1.486;2023-08-24T03:27:24;100424.06;;;18.68;70.66
54562;BME280;69047;53.358;-1.486;2023-08-24T03:29:53;100413.53;;;18.84;69.78
54562;BME280;69047;53.358;-1.486;2023-08-24T03:32:18;100405.09;;;18.45;71.28
54562;BME280;69047;53.358;-1.486;2023-08-24T03:34:44;100402.41;;;18.67;70.69
54562;BME280;69047;53.358;-1.486;2023-08-24T03:37:09;100383.91;;;18.72;70.43
54562;BME280;69047;53.358;-1.486;2023-08-24T03:39:36;100391.16;;;18.55;70.78
54562;BME280;69047;53.358;-1.486;2023-08-24T03:42:02;100393.88;;;18.68;70.42
54562;BME280;69047;53.358;-1.486;2023-08-24T03:44:27;100403.59;;;18.74;70.11
54562;BME280;69047;53.358;-1.486;2023-08-24T03:46:53;100403.81;;;18.78;69.94
54562;BME280;69047;53.358;-1.486;2023-08-24T03:49:18;100400.94;;;18.83;69.93
54562;BME280;69047;53.358;-1.486;2023-08-24T03:51:43;100395.31;;;18.88;69.79
54562;BME280;69047;53.358;-1.486;2023-08-24T03:54:09;100396.88;;;18.81;70.35
54562;BME280;69047;53.358;-1.486;2023-08-24T03:56:34;100388.41;;;18.68;71.03
54562;BME280;69047;53.358;-1.486;2023-08-24T03:58:59;100379.66;;;18.89;70.08
54562;BME280;69047;53.358;-1.486;2023-08-24T04:01:25;100377.72;;;18.89;70.04
54562;BME280;69047;53.358;-1.486;2023-08-24T04:03:51;100376.72;;;18.85;70.49
54562;BME280;69047;53.358;-1.486;2023-08-24T04:06:17;100383.47;;;18.43;71.92
54562;BME280;69047;53.358;-1.486;2023-08-24T04:08:44;100390.28;;;17.96;72.56
54562;BME280;69047;53.358;-1.486;2023-08-24T04:11:09;100375.50;;;18.19;72.61
54562;BME280;69047;53.358;-1.486;2023-08-24T04:13:35;100386.47;;;18.19;72.34
54562;BME280;69047;53.358;-1.486;2023-08-24T04:16:00;100387.22;;;18.47;71.13
54562;BME280;69047;53.358;-1.486;2023-08-24T04:18:26;100370.31;;;18.67;70.02
54562;BME280;69047;53.358;-1.486;2023-08-24T04:20:52;100370.25;;;18.59;70.27
54562;BME280;69047;53.358;-1.486;2023-08-24T04:23:24;100362.75;;;18.15;71.82
54562;BME280;69047;53.358;-1.486;2023-08-24T04:25:50;100352.19;;;18.08;72.20
54562;BME280;69047;53.358;-1.486;2023-08-24T04:28:16;100345.00;;;18.35;71.00
54562;BME280;69047;53.358;-1.486;2023-08-24T04:30:49;100345.16;;;18.16;71.34
54562;BME280;69047;53.358;-1.486;2023-08-24T04:33:15;100341.72;;;18.10;71.80
54562;BME280;69047;53.358;-1.486;2023-08-24T04:35:40;100338.16;;;18.23;70.70
54562;BME280;69047;53.358;-1.486;2023-08-24T04:38:06;100343.97;;;18.44;69.83
54562;BME280;69047;53.358;-1.486;2023-08-24T04:40:48;100338.28;;;18.18;70.47
54562;BME280;69047;53.358;-1.486;2023-08-24T04:43:14;100340.47;;;17.94;70.62
54562;BME280;69047;53.358;-1.486;2023-08-24T04:45:40;100349.38;;;18.36;68.58
54562;BME280;69047;53.358;-1.486;2023-08-24T04:48:06;100355.94;;;18.48;68.03
54562;BME280;69047;53.358;-1.486;2023-08-24T04:50:31;100352.44;;;17.85;68.74
54562;BME280;69047;53.358;-1.486;2023-08-24T04:52:57;100341.94;;;18.14;69.03
54562;BME280;69047;53.358;-1.486;2023-08-24T04:55:23;100335.41;;;18.23;67.98
54562;BME280;69047;53.358;-1.486;2023-08-24T04:57:48;100331.63;;;17.97;68.11
54562;BME280;69047;53.358;-1.486;2023-08-24T05:00:14;100330.63;;;18.29;67.00
54562;BME280;69047;53.358;-1.486;2023-08-24T05:02:42;100336.22;;;18.24;67.61
54562;BME280;69047;53.358;-1.486;2023-08-24T05:05:08;100320.72;;;18.42;66.34
54562;BME280;69047;53.358;-1.486;2023-08-24T05:07:40;100321.63;;;18.51;64.56
54562;BME280;69047;53.358;-1.486;2023-08-24T05:10:08;100330.81;;;18.33;66.06
54562;BME280;69047;53.358;-1.486;2023-08-24T05:12:34;100326.69;;;18.44;66.22
54562;BME280;69047;53.358;-1.486;2023-08-24T05:15:02;100336.28;;;18.33;65.93
54562;BME280;69047;53.358;-1.486;2023-08-24T05:17:28;100326.06;;;18.47;65.07
54562;BME280;69047;53.358;-1.486;2023-08-24T05:19:54;100343.31;;;18.25;65.81
54562;BME280;69047;53.358;-1.486;2023-08-24T05:22:19;100333.94;;;18.40;63.50
54562;BME280;69047;53.358;-1.486;2023-08-24T05:24:46;100338.09;;;18.37;64.48
54562;BME280;69047;53.358;-1.486;2023-08-24T05:27:11;100340.16;;;18.32;63.89
54562;BME280;69047;53.358;-1.486;2023-08-24T05:29:37;100339.94;;;18.28;63.91
54562;BME280;69047;53.358;-1.486;2023-08-24T05:32:02;100333.81;;;18.45;63.37
54562;BME280;69047;53.358;-1.486;2023-08-24T05:34:28;100343.19;;;18.66;63.75
54562;BME280;69047;53.358;-1.486;2023-08-24T05:36:53;100347.66;;;18.40;62.70
54562;BME280;69047;53.358;-1.486;2023-08-24T05:39:19;100340.22;;;18.40;62.27
54562;BME280;69047;53.358;-1.486;2023-08-24T05:41:44;100337.03;;;18.24;64.40
54562;BME280;69047;53.358;-1.486;2023-08-24T05:44:10;100321.34;;;18.39;61.49
54562;BME280;69047;53.358;-1.486;2023-08-24T05:46:35;100329.72;;;18.56;61.63
54562;BME280;69047;53.358;-1.486;2023-08-24T05:49:00;100324.91;;;18.39;62.38
54562;BME280;69047;53.358;-1.486;2023-08-24T05:51:26;100326.09;;;18.11;64.24
54562;BME280;69047;53.358;-1.486;2023-08-24T05:53:51;100335.00;;;18.16;64.13
54562;BME280;69047;53.358;-1.486;2023-08-24T05:56:24;100323.56;;;18.14;63.52
54562;BME280;69047;53.358;-1.486;2023-08-24T05:58:50;100311.84;;;18.00;62.98
54562;BME280;69047;53.358;-1.486;2023-08-24T06:01:16;100313.00;;;18.44;61.70
54562;BME280;69047;53.358;-1.486;2023-08-24T06:03:41;100314.53;;;18.50;60.52
54562;BME280;69047;53.358;-1.486;2023-08-24T06:06:06;100317.69;;;18.65;60.14
54562;BME280;69047;53.358;-1.486;2023-08-24T06:08:34;100305.38;;;18.54;61.26
54562;BME280;69047;53.358;-1.486;2023-08-24T06:10:59;100310.13;;;18.27;60.12
54562;BME280;69047;53.358;-1.486;2023-08-24T06:13:25;100310.22;;;18.57;60.09
54562;BME280;69047;53.358;-1.486;2023-08-24T06:15:51;100305.19;;;18.51;59.27
54562;BME280;69047;53.358;-1.486;2023-08-24T06:18:16;100302.13;;;18.52;58.35
54562;BME280;69047;53.358;-1.486;2023-08-24T06:20:41;100294.81;;;18.70;57.93
54562;BME280;69047;53.358;-1.486;2023-08-24T06:23:07;100286.50;;;18.84;58.09
54562;BME280;69047;53.358;-1.486;2023-08-24T06:25:33;100295.94;;;19.00;58.93
54562;BME280;69047;53.358;-1.486;2023-08-24T06:27:59;100295.50;;;18.75;58.39
54562;BME280;69047;53.358;-1.486;2023-08-24T06:30:26;100282.78;;;18.35;58.99
54562;BME280;69047;53.358;-1.486;2023-08-24T06:32:52;100293.84;;;18.66;58.15
54562;BME280;69047;53.358;-1.486;2023-08-24T06:35:17;100284.28;;;18.94;57.96
54562;BME280;69047;53.358;-1.486;2023-08-24T06:37:43;100276.59;;;18.30;61.46
54562;BME280;69047;53.358;-1.486;2023-08-24T06:40:09;100269.06;;;18.35;60.05
54562;BME280;69047;53.358;-1.486;2023-08-24T06:42:34;100262.19;;;18.02;63.17
54562;BME280;69047;53.358;-1.486;2023-08-24T06:45:00;100265.75;;;18.02;61.52
54562;BME280;69047;53.358;-1.486;2023-08-24T06:47:25;100265.34;;;18.53;61.16
54562;BME280;69047;53.358;-1.486;2023-08-24T06:49:51;100263.63;;;18.57;60.47
54562;BME280;69047;53.358;-1.486;2023-08-24T06:52:16;100256.56;;;18.43;60.51
54562;BME280;69047;53.358;-1.486;2023-08-24T06:54:42;100248.75;;;18.58;59.71
54562;BME280;69047;53.358;-1.486;2023-08-24T06:57:07;100246.44;;;18.52;60.10
54562;BME280;69047;53.358;-1.486;2023-08-24T06:59:32;100245.81;;;18.55;59.94
54562;BME280;69047;53.358;-1.486;2023-08-24T07:01:58;100249.13;;;18.43;59.24
54562;BME280;69047;53.358;-1.486;2023-08-24T07:04:25;100253.47;;;18.44;59.92
54562;BME280;69047;53.358;-1.486;2023-08-24T07:06:50;100253.84;;;18.73;59.28
54562;BME280;69047;53.358;-1.486;2023-08-24T07:09:16;100243.72;;;18.83;58.95
54562;BME280;69047;53.358;-1.486;2023-08-24T07:11:43;100237.66;;;18.94;59.03
54562;BME280;69047;53.358;-1.486;2023-08-24T07:14:08;100238.13;;;18.57;61.35
54562;BME280;69047;53.358;-1.486;2023-08-24T07:16:34;100244.41;;;18.57;61.54
54562;BME280;69047;53.358;-1.486;2023-08-24T07:18:59;100253.50;;;18.66;61.26
54562;BME280;69047;53.358;-1.486;2023-08-24T07:21:25;100256.16;;;18.80;59.57
54562;BME280;69047;53.358;-1.486;2023-08-24T07:23:50;100261.97;;;18.78;60.06
54562;BME280;69047;53.358;-1.486;2023-08-24T07:26:15;100248.16;;;18.70;59.62
54562;BME280;69047;53.358;-1.486;2023-08-24T07:28:41;100243.50;;;18.70;61.08
54562;BME280;69047;53.358;-1.486;2023-08-24T07:31:10;100242.06;;;19.12;59.62
54562;BME280;69047;53.358;-1.486;2023-08-24T07:33:36;100239.34;;;19.21;59.09
54562;BME280;69047;53.358;-1.486;2023-08-24T07:36:04;100237.72;;;19.11;59.04
54562;BME280;69047;53.358;-1.486;2023-08-24T07:38:30;100238.72;;;19.24;58.98
54562;BME280;69047;53.358;-1.486;2023-08-24T07:40:57;100233.13;;;19.38;58.64
54562;BME280;69047;53.358;-1.486;2023-08-24T07:43:22;100221.72;;;19.53;57.56
54562;BME280;69047;53.358;-1.486;2023-08-24T07:45:51;100215.06;;;19.62;58.43
54562;BME280;69047;53.358;-1.486;2023-08-24T07:48:18;100214.47;;;19.82;58.93
54562;BME280;69047;53.358;-1.486;2023-08-24T07:50:43;100209.44;;;19.76;58.26
54562;BME280;69047;53.358;-1.486;2023-08-24T07:53:09;100202.19;;;19.88;57.67
54562;BME280;69047;53.358;-1.486;2023-08-24T07:55:34;100205.75;;;19.98;57.55
54562;BME280;69047;53.358;-1.486;2023-08-24T07:57:59;100205.38;;;20.08;57.64
54562;BME280;69047;53.358;-1.486;2023-08-24T08:00:25;100200.84;;;20.20;57.00
54562;BME280;69047;53.358;-1.486;2023-08-24T08:02:51;100196.50;;;20.02;57.79
54562;BME280;69047;53.358;-1.486;2023-08-24T08:05:17;100206.84;;;20.05;58.32
54562;BME280;69047;53.358;-1.486;2023-08-24T08:07:43;100191.78;;;20.20;58.07
54562;BME280;69047;53.358;-1.486;2023-08-24T08:10:09;100190.50;;;20.34;57.77
54562;BME280;69047;53.358;-1.486;2023-08-24T08:12:35;100193.09;;;20.39;58.75
54562;BME280;69047;53.358;-1.486;2023-08-24T08:15:01;100194.53;;;20.46;57.94
54562;BME280;69047;53.358;-1.486;2023-08-24T08:17:26;100195.28;;;20.63;58.48
54562;BME280;69047;53.358;-1.486;2023-08-24T08:19:56;100200.63;;;20.60;57.88
54562;BME280;69047;53.358;-1.486;2023-08-24T08:22:22;100187.31;;;20.70;57.75
54562;BME280;69047;53.358;-1.486;2023-08-24T08:24:48;100190.84;;;20.79;57.89
54562;BME280;69047;53.358;-1.486;2023-08-24T08:27:15;100189.69;;;20.89;57.69
54562;BME280;69047;53.358;-1.486;2023-08-24T08:29:40;100202.81;;;20.83;56.98
54562;BME280;69047;53.358;-1.486;2023-08-24T08:32:05;100200.31;;;20.53;58.18
54562;BME280;69047;53.358;-1.486;2023-08-24T08:34:31;100184.28;;;20.63;59.09
54562;BME280;69047;53.358;-1.486;2023-08-24T08:36:57;100192.91;;;20.45;58.60
54562;BME280;69047;53.358;-1.486;2023-08-24T08:39:22;100195.63;;;20.53;57.80
54562;BME280;69047;53.358;-1.486;2023-08-24T08:41:48;100200.63;;;20.60;57.62
54562;BME280;69047;53.358;-1.486;2023-08-24T08:44:14;100200.03;;;20.46;58.33
54562;BME280;69047;53.358;-1.486;2023-08-24T08:46:41;100198.84;;;20.55;58.43
54562;BME280;69047;53.358;-1.486;2023-08-24T08:49:08;100203.75;;;20.41;58.38
54562;BME280;69047;53.358;-1.486;2023-08-24T08:51:36;100185.78;;;20.43;58.50
54562;BME280;69047;53.358;-1.486;2023-08-24T08:54:02;100189.97;;;20.50;58.20
54562;BME280;69047;53.358;-1.486;2023-08-24T08:56:29;100186.94;;;20.42;59.00
54562;BME280;69047;53.358;-1.486;2023-08-24T08:58:55;100187.19;;;20.58;58.20
54562;BME280;69047;53.358;-1.486;2023-08-24T09:01:22;100186.41;;;20.58;58.57
54562;BME280;69047;53.358;-1.486;2023-08-24T09:03:48;100181.97;;;20.74;58.03
54562;BME280;69047;53.358;-1.486;2023-08-24T09:06:14;100185.72;;;20.69;57.79
54562;BME280;69047;53.358;-1.486;2023-08-24T09:08:39;100185.59;;;20.57;58.36
54562;BME280;69047;53.358;-1.486;2023-08-24T09:11:05;100182.53;;;20.88;57.11
54562;BME280;69047;53.358;-1.486;2023-08-24T09:13:33;100176.34;;;20.62;57.92
54562;BME280;69047;53.358;-1.486;2023-08-24T09:16:08;100177.75;;;21.06;57.15
54562;BME280;69047;53.358;-1.486;2023-08-24T09:18:37;100179.00;;;20.87;58.00
54562;BME280;69047;53.358;-1.486;2023-08-24T09:21:15;100162.91;;;20.98;58.17
54562;BME280;69047;53.358;-1.486;2023-08-24T09:23:45;100159.09;;;20.90;56.63
54562;BME280;69047;53.358;-1.486;2023-08-24T09:26:13;100164.25;;;20.92;56.64
54562;BME280;69047;53.358;-1.486;2023-08-24T09:28:42;100163.91;;;20.93;57.10
54562;BME280;69047;53.358;-1.486;2023-08-24T09:31:08;100162.09;;;20.97;56.98
54562;BME280;69047;53.358;-1.486;2023-08-24T09:33:33;100158.41;;;20.93;56.80
54562;BME280;69047;53.358;-1.486;2023-08-24T09:36:01;100164.31;;;20.75;58.08
54562;BME280;69047;53.358;-1.486;2023-08-24T09:38:27;100163.03;;;21.10;57.90
54562;BME280;69047;53.358;-1.486;2023-08-24T09:40:54;100165.88;;;21.22;57.45
54562;BME280;69047;53.358;-1.486;2023-08-24T09:43:20;100176.75;;;21.19;55.89
54562;BME280;69047;53.358;-1.486;2023-08-24T09:45:49;100185.78;;;21.28;55.94
54562;BME280;69047;53.358;-1.486;2023-08-24T09:48:15;100179.13;;;21.29;56.52
54562;BME280;69047;53.358;-1.486;2023-08-24T09:50:42;100173.22;;;21.39;55.41
54562;BME280;69047;53.358;-1.486;2023-08-24T09:53:22;100175.84;;;21.35;55.80
54562;BME280;69047;53.358;-1.486;2023-08-24T09:55:55;100176.91;;;21.22;55.48
54562;BME280;69047;53.358;-1.486;2023-08-24T09:58:24;100180.63;;;21.47;55.23
54562;BME280;69047;53.358;-1.486;2023-08-24T10:00:50;100179.94;;;21.29;56.01
54562;BME280;69047;53.358;-1.486;2023-08-24T10:03:19;100182.31;;;21.10;56.27
54562;BME280;69047;53.358;-1.486;2023-08-24T10:05:49;100161.91;;;21.11;56.68
54562;BME280;69047;53.358;-1.486;2023-08-24T10:08:18;100179.72;;;21.14;56.33
54562;BME280;69047;53.358;-1.486;2023-08-24T10:10:44;100178.22;;;21.16;56.43
54562;BME280;69047;53.358;-1.486;2023-08-24T10:13:18;100173.81;;;21.24;55.77
54562;BME280;69047;53.358;-1.486;2023-08-24T10:15:47;100182.47;;;21.05;56.25
54562;BME280;69047;53.358;-1.486;2023-08-24T10:18:15;100182.13;;;21.15;57.18
54562;BME280;69047;53.358;-1.486;2023-08-24T10:20:42;100177.94;;;21.09;56.53
54562;BME280;69047;53.358;-1.486;2023-08-24T10:23:10;100167.50;;;21.23;56.35
54562;BME280;69047;53.358;-1.486;2023-08-24T10:25:37;100166.00;;;20.96;57.64
54562;BME280;69047;53.358;-1.486;2023-08-24T10:28:04;100168.28;;;20.94;57.30
54562;BME280;69047;53.358;-1.486;2023-08-24T10:30:31;100170.16;;;21.11;57.38
54562;BME280;69047;53.358;-1.486;2023-08-24T10:32:57;100175.34;;;21.13;57.19
54562;BME280;69047;53.358;-1.486;2023-08-24T10:35:23;100164.13;;;21.18;57.76
54562;BME280;69047;53.358;-1.486;2023-08-24T10:37:52;100154.34;;;21.49;56.12
54562;BME280;69047;53.358;-1.486;2023-08-24T10:40:31;100146.47;;;21.19;57.46
54562;BME280;69047;53.358;-1.486;2023-08-24T10:42:57;100151.84;;;21.36;56.12
54562;BME280;69047;53.358;-1.486;2023-08-24T10:45:24;100156.16;;;21.45;55.61
54562;BME280;69047;53.358;-1.486;2023-08-24T10:47:53;100150.66;;;21.45;56.45
54562;BME280;69047;53.358;-1.486;2023-08-24T10:50:19;100151.72;;;21.74;57.18
54562;BME280;69047;53.358;-1.486;2023-08-24T10:52:44;100144.00;;;21.67;55.85
54562;BME280;69047;53.358;-1.486;2023-08-24T10:55:24;100139.25;;;21.35;56.95
54562;BME280;69047;53.358;-1.486;2023-08-24T10:58:00;100141.50;;;21.53;56.22
54562;BME280;69047;53.358;-1.486;2023-08-24T11:00:28;100139.53;;;21.75;55.02
54562;BME280;69047;53.358;-1.486;2023-08-24T11:02:54;100151.09;;;21.47;56.88
54562;BME280;69047;53.358;-1.486;2023-08-24T11:07:51;100147.72;;;21.83;55.07
54562;BME280;69047;53.358;-1.486;2023-08-24T11:10:17;100140.94;;;21.81;55.18
54562;BME280;69047;53.358;-1.486;2023-08-24T11:13:15;100140.72;;;21.74;55.70
54562;BME280;69047;53.358;-1.486;2023-08-24T11:15:47;100142.31;;;21.75;55.26
54562;BME280;69047;53.358;-1.486;2023-08-24T11:20:48;100146.91;;;21.71;55.99
54562;BME280;69047;53.358;-1.486;2023-08-24T11:23:17;100141.25;;;21.88;55.30
54562;BME280;69047;53.358;-1.486;2023-08-24T11:25:43;100130.72;;;21.81;55.50
54562;BME280;69047;53.358;-1.486;2023-08-24T11:28:08;100134.59;;;21.47;55.62
54562;BME280;69047;53.358;-1.486;2023-08-24T11:30:34;100122.72;;;21.56;56.29
54562;BME280;69047;53.358;-1.486;2023-08-24T11:33:01;100132.44;;;21.74;55.35
54562;BME280;69047;53.358;-1.486;2023-08-24T11:35:27;100155.28;;;21.53;55.73
54562;BME280;69047;53.358;-1.486;2023-08-24T11:37:53;100159.34;;;21.35;56.69
54562;BME280;69047;53.358;-1.486;2023-08-24T11:40:19;100154.50;;;21.32;56.84
54562;BME280;69047;53.358;-1.486;2023-08-24T11:42:49;100154.66;;;21.27;56.59
54562;BME280;69047;53.358;-1.486;2023-08-24T11:45:18;100152.41;;;21.29;58.10
54562;BME280;69047;53.358;-1.486;2023-08-24T11:47:43;100157.63;;;21.22;58.06
54562;BME280;69047;53.358;-1.486;2023-08-24T11:50:09;100154.00;;;21.01;57.74
54562;BME280;69047;53.358;-1.486;2023-08-24T11:52:42;100156.72;;;21.10;58.30
54562;BME280;69047;53.358;-1.486;2023-08-24T11:55:08;100162.34;;;21.42;56.45
54562;BME280;69047;53.358;-1.486;2023-08-24T11:57:37;100161.38;;;21.18;56.99
54562;BME280;69047;53.358;-1.486;2023-08-24T12:00:04;100161.13;;;21.02;57.85
54562;BME280;69047;53.358;-1.486;2023-08-24T12:02:30;100165.69;;;21.27;56.89
54562;BME280;69047;53.358;-1.486;2023-08-24T12:04:56;100157.81;;;21.17;57.12
54562;BME280;69047;53.358;-1.486;2023-08-24T12:07:22;100148.56;;;21.42;57.10
54562;BME280;69047;53.358;-1.486;2023-08-24T12:09:47;100146.47;;;21.39;56.71
54562;BME280;69047;53.358;-1.486;2023-08-24T12:12:18;100156.97;;;21.67;56.99
54562;BME280;69047;53.358;-1.486;2023-08-24T12:14:49;100158.53;;;21.56;57.03
54562;BME280;69047;53.358;-1.486;2023-08-24T12:17:15;100154.63;;;21.77;56.25
54562;BME280;69047;53.358;-1.486;2023-08-24T12:19:45;100151.47;;;21.67;55.93
54562;BME280;69047;53.358;-1.486;2023-08-24T12:22:19;100151.53;;;21.37;56.59
54562;BME280;69047;53.358;-1.486;2023-08-24T12:24:45;100145.28;;;21.49;56.04
54562;BME280;69047;53.358;-1.486;2023-08-24T12:27:21;100152.72;;;21.48;56.83
54562;BME280;69047;53.358;-1.486;2023-08-24T12:29:47;100142.25;;;21.63;55.30
54562;BME280;69047;53.358;-1.486;2023-08-24T12:32:13;100156.91;;;21.55;56.10
54562;BME280;69047;53.358;-1.486;2023-08-24T12:34:40;100146.69;;;21.34;56.52
54562;BME280;69047;53.358;-1.486;2023-08-24T12:37:06;100140.63;;;21.82;55.87
54562;BME280;69047;53.358;-1.486;2023-08-24T12:39:38;100133.16;;;21.41;56.91
54562;BME280;69047;53.358;-1.486;2023-08-24T12:42:05;100144.69;;;21.64;56.24
54562;BME280;69047;53.358;-1.486;2023-08-24T12:44:30;100148.63;;;21.34;56.26
54562;BME280;69047;53.358;-1.486;2023-08-24T12:46:56;100156.31;;;21.49;56.01
54562;BME280;69047;53.358;-1.486;2023-08-24T12:49:21;100153.41;;;21.45;56.70